Time;durP1;ratioP1;P1;durP2;ratioP2;P2;SDS_P1;SDS_P2;PMS_P1;PMS_P2;Temp;Humidity;BMP_temperature;BMP_pressure;BME280_temperature;BME280_humidity;BME280_pressure;Samples;Min_cycle;Max_cycle;Signal;HPM_P1;HPM_P2
2023/06/28 00:00:09;;;;;;;10.82;3.08;;;;;;;;;;5016469;28;20052;-76
2023/06/28 00:02:36;;;;;;;6.35;3.08;;;;;;;;;;5034302;28;20104;-77
2023/06/28 00:05:03;;;;;;;8.40;4.00;;;;;;;;;;5034090;28;20057;-77
2023/06/28 00:07:29;;;;;;;9.82;3.45;;;;;;;;;;5033961;28;20036;-77
2023/06/28 00:09:55;;;;;;;8.88;3.38;;;;;;;;;;5034375;28;20034;-77
2023/06/28 00:12:21;;;;;;;4.38;2.90;;;;;;;;;;5016185;28;20036;-76
2023/06/28 00:14:48;;;;;;;5.47;2.75;;;;;;;;;;5033870;28;20407;-76
2023/06/28 00:17:14;;;;;;;6.63;2.53;;;;;;;;;;5033932;28;20100;-77
2023/06/28 00:19:47;;;;;;;6.72;2.38;;;;;;;;;;5034572;28;20469;-76
2023/06/28 00:22:13;;;;;;;6.75;2.50;;;;;;;;;;5034496;28;20079;-77
2023/06/28 00:24:39;;;;;;;5.50;2.63;;;;;;;;;;5033777;28;20066;-76
2023/06/28 00:27:05;;;;;;;3.50;2.60;;;;;;;;;;5032895;28;20045;-77
2023/06/28 00:29:31;;;;;;;4.30;2.55;;;;;;;;;;5033613;28;20491;-77
2023/06/28 00:31:57;;;;;;;5.68;2.60;;;;;;;;;;5015603;28;20036;-76
2023/06/28 00:34:23;;;;;;;6.40;2.40;;;;;;;;;;5033953;28;20053;-77
2023/06/28 00:36:50;;;;;;;3.72;2.42;;;;;;;;;;5033469;28;20060;-76
2023/06/28 00:39:16;;;;;;;7.95;3.03;;;;;;;;;;5033356;28;20029;-76
2023/06/28 00:41:42;;;;;;;6.15;2.55;;;;;;;;;;5033366;28;20091;-77
2023/06/28 00:44:08;;;;;;;7.93;3.00;;;;;;;;;;5015562;28;20029;-77
2023/06/28 00:46:35;;;;;;;8.98;2.50;;;;;;;;;;5033671;28;20518;-77
2023/06/28 00:49:02;;;;;;;7.03;3.22;;;;;;;;;;5033458;28;20029;-77
2023/06/28 00:51:29;;;;;;;4.75;2.15;;;;;;;;;;5033444;28;20060;-77
2023/06/28 00:53:57;;;;;;;8.70;2.63;;;;;;;;;;5015678;28;20116;-77
2023/06/28 00:56:24;;;;;;;5.80;2.25;;;;;;;;;;5035420;28;20079;-77
2023/06/28 00:58:51;;;;;;;3.58;2.13;;;;;;;;;;5036338;28;20029;-77
2023/06/28 01:01:17;;;;;;;4.88;2.58;;;;;;;;;;5038984;28;20083;-77
2023/06/28 01:03:43;;;;;;;6.63;2.65;;;;;;;;;;5041145;28;20212;-77
2023/06/28 01:06:12;;;;;;;9.82;3.53;;;;;;;;;;5040681;28;20033;-78
2023/06/28 01:08:41;;;;;;;5.78;2.95;;;;;;;;;;5038346;28;20045;-77
2023/06/28 01:11:08;;;;;;;4.03;2.20;;;;;;;;;;5036974;28;20067;-78
2023/06/28 01:13:35;;;;;;;5.85;2.55;;;;;;;;;;5035043;28;20040;-78
2023/06/28 01:16:01;;;;;;;3.08;2.50;;;;;;;;;;5037334;28;20072;-79
2023/06/28 01:18:27;;;;;;;4.75;2.40;;;;;;;;;;5037892;28;20024;-79
2023/06/28 01:20:54;;;;;;;4.78;2.72;;;;;;;;;;5037969;28;20071;-78
2023/06/28 01:23:21;;;;;;;8.68;2.83;;;;;;;;;;5018887;28;20500;-78
2023/06/28 01:25:48;;;;;;;5.28;2.85;;;;;;;;;;5037439;28;20032;-78
2023/06/28 01:28:14;;;;;;;7.20;2.50;;;;;;;;;;5037078;28;20021;-78
2023/06/28 01:30:40;;;;;;;8.52;2.47;;;;;;;;;;5020086;28;20108;-78
2023/06/28 01:33:06;;;;;;;5.20;2.58;;;;;;;;;;5036143;28;20502;-77
2023/06/28 01:35:32;;;;;;;6.20;2.20;;;;;;;;;;5039165;28;20025;-77
2023/06/28 01:37:59;;;;;;;6.28;2.53;;;;;;;;;;5015705;28;20029;-77
2023/06/28 01:40:27;;;;;;;7.60;2.67;;;;;;;;;;5035116;28;20033;-77
2023/06/28 01:42:53;;;;;;;6.25;2.88;;;;;;;;;;5019303;28;20025;-78
2023/06/28 01:45:19;;;;;;;9.55;2.85;;;;;;;;;;5034204;28;20391;-77
2023/06/28 01:47:45;;;;;;;8.73;2.60;;;;;;;;;;5031905;28;20079;-77
2023/06/28 01:50:11;;;;;;;10.07;2.83;;;;;;;;;;5015994;28;20036;-78
2023/06/28 01:52:37;;;;;;;5.95;2.60;;;;;;;;;;5035914;28;20093;-78
2023/06/28 01:55:04;;;;;;;4.38;2.55;;;;;;;;;;5034861;28;20025;-77
2023/06/28 01:57:30;;;;;;;5.30;2.50;;;;;;;;;;5032257;28;20025;-77
2023/06/28 01:59:56;;;;;;;6.63;2.78;;;;;;;;;;5015275;28;20131;-77
2023/06/28 02:02:22;;;;;;;6.75;2.63;;;;;;;;;;5034528;28;20024;-77
2023/06/28 02:04:48;;;;;;;6.07;3.20;;;;;;;;;;5018371;28;20025;-77
2023/06/28 02:07:14;;;;;;;8.23;3.50;;;;;;;;;;5035318;28;20073;-77
2023/06/28 02:09:40;;;;;;;7.68;2.72;;;;;;;;;;5035620;28;20056;-77
2023/06/28 02:12:06;;;;;;;9.40;2.70;;;;;;;;;;5035959;28;20044;-78
2023/06/28 02:14:32;;;;;;;3.80;2.72;;;;;;;;;;5036000;28;20037;-78
2023/06/28 02:17:01;;;;;;;6.07;2.78;;;;;;;;;;5017342;28;20040;-78
2023/06/28 02:19:33;;;;;;;9.85;3.22;;;;;;;;;;5034917;28;20029;-78
2023/06/28 02:21:59;;;;;;;7.47;2.45;;;;;;;;;;5035296;28;20101;-78
2023/06/28 02:24:25;;;;;;;8.13;2.78;;;;;;;;;;5035951;28;20030;-78
2023/06/28 02:26:53;;;;;;;7.10;2.45;;;;;;;;;;5035537;28;20029;-78
2023/06/28 02:29:19;;;;;;;4.90;2.30;;;;;;;;;;5021239;28;20048;-78
2023/06/28 02:31:45;;;;;;;6.13;2.72;;;;;;;;;;5046423;28;20025;-78
2023/06/28 02:34:11;;;;;;;8.73;2.70;;;;;;;;;;5041399;28;20025;-78
2023/06/28 02:36:37;;;;;;;5.70;2.28;;;;;;;;;;5016755;28;20284;-78
2023/06/28 02:39:03;;;;;;;11.38;3.55;;;;;;;;;;5033231;28;20032;-77
2023/06/28 02:41:29;;;;;;;7.88;2.45;;;;;;;;;;5015580;28;20021;-77
2023/06/28 02:43:55;;;;;;;7.40;2.47;;;;;;;;;;5032613;28;20036;-77
2023/06/28 02:46:21;;;;;;;5.38;2.65;;;;;;;;;;5032670;28;20069;-77
2023/06/28 02:48:48;;;;;;;5.72;2.22;;;;;;;;;;5031298;28;20518;-77
2023/06/28 02:51:14;;;;;;;10.98;2.83;;;;;;;;;;5032315;28;20048;-77
2023/06/28 02:53:40;;;;;;;9.75;2.97;;;;;;;;;;5034361;28;20030;-77
2023/06/28 02:56:06;;;;;;;5.45;2.42;;;;;;;;;;5034382;28;20034;-77
2023/06/28 02:58:32;;;;;;;5.70;2.15;;;;;;;;;;5034080;28;20029;-78
2023/06/28 03:00:58;;;;;;;5.63;2.63;;;;;;;;;;5035717;28;20126;-77
2023/06/28 03:03:24;;;;;;;9.60;2.97;;;;;;;;;;5032930;28;20060;-77
2023/06/28 03:05:50;;;;;;;7.68;2.22;;;;;;;;;;5031432;28;20045;-75
2023/06/28 03:08:16;;;;;;;8.48;2.92;;;;;;;;;;5031294;28;20028;-76
2023/06/28 03:10:42;;;;;;;8.05;2.90;;;;;;;;;;5031219;28;20384;-76
2023/06/28 03:13:08;;;;;;;8.63;5.20;;;;;;;;;;5033780;28;20117;-77
2023/06/28 03:15:34;;;;;;;7.32;3.03;;;;;;;;;;5039541;28;20092;-77
2023/06/28 03:18:00;;;;;;;6.00;3.20;;;;;;;;;;5036062;28;20076;-77
2023/06/28 03:20:27;;;;;;;9.45;2.42;;;;;;;;;;5032689;28;20037;-77
2023/06/28 03:22:53;;;;;;;6.00;3.05;;;;;;;;;;5034205;28;20029;-77
2023/06/28 03:25:19;;;;;;;13.02;4.75;;;;;;;;;;5038001;28;20167;-77
2023/06/28 03:27:45;;;;;;;10.45;2.38;;;;;;;;;;5034085;28;20579;-77
2023/06/28 03:30:11;;;;;;;7.53;3.20;;;;;;;;;;5033956;28;20030;-77
2023/06/28 03:32:37;;;;;;;8.35;2.47;;;;;;;;;;5031917;28;20025;-75
2023/06/28 03:35:03;;;;;;;4.80;2.28;;;;;;;;;;5034052;28;20060;-77
2023/06/28 03:37:29;;;;;;;8.10;2.78;;;;;;;;;;5015613;28;20117;-77
2023/06/28 03:39:56;;;;;;;16.95;2.95;;;;;;;;;;5036785;28;20064;-78
2023/06/28 03:42:24;;;;;;;7.40;2.47;;;;;;;;;;5035784;28;20093;-77
2023/06/28 03:44:50;;;;;;;8.25;2.80;;;;;;;;;;5036399;28;20398;-79
2023/06/28 03:47:16;;;;;;;5.00;2.15;;;;;;;;;;5018260;28;20025;-78
2023/06/28 03:49:43;;;;;;;5.15;2.58;;;;;;;;;;5026519;28;20372;-76
2023/06/28 03:52:09;;;;;;;7.85;2.03;;;;;;;;;;5035381;28;20033;-77
2023/06/28 03:54:35;;;;;;;6.20;2.63;;;;;;;;;;5034576;28;20026;-77
2023/06/28 03:57:01;;;;;;;7.40;1.98;;;;;;;;;;5036248;28;20040;-77
2023/06/28 03:59:30;;;;;;;6.53;2.15;;;;;;;;;;5034219;28;20031;-79
2023/06/28 04:01:56;;;;;;;5.75;2.03;;;;;;;;;;5039195;28;20048;-78
2023/06/28 04:04:22;;;;;;;8.30;2.88;;;;;;;;;;5040337;28;20480;-78
2023/06/28 04:06:48;;;;;;;9.93;2.72;;;;;;;;;;5040913;28;20030;-77
2023/06/28 04:09:15;;;;;;;11.63;2.80;;;;;;;;;;5034514;28;20025;-77
2023/06/28 04:11:44;;;;;;;8.02;2.95;;;;;;;;;;5035156;28;20025;-78
2023/06/28 04:14:10;;;;;;;9.27;1.85;;;;;;;;;;5034913;28;20044;-77
2023/06/28 04:16:36;;;;;;;6.63;2.40;;;;;;;;;;5035860;28;20026;-77
2023/06/28 04:19:05;;;;;;;9.70;1.92;;;;;;;;;;5040636;28;20029;-78
2023/06/28 04:21:31;;;;;;;10.00;2.35;;;;;;;;;;5038738;28;20021;-78
2023/06/28 04:23:57;;;;;;;7.05;2.10;;;;;;;;;;5036022;28;20045;-77
2023/06/28 04:26:23;;;;;;;9.07;2.38;;;;;;;;;;5020553;28;20033;-78
2023/06/28 04:28:49;;;;;;;7.22;2.08;;;;;;;;;;5036809;28;20041;-78
2023/06/28 04:31:15;;;;;;;6.32;1.95;;;;;;;;;;5036282;28;20036;-78
2023/06/28 04:33:41;;;;;;;5.45;2.03;;;;;;;;;;5040983;28;20085;-78
2023/06/28 04:36:07;;;;;;;4.70;1.70;;;;;;;;;;5037593;28;20081;-79
2023/06/28 04:38:34;;;;;;;6.30;2.33;;;;;;;;;;5038110;28;20053;-77
2023/06/28 04:41:00;;;;;;;9.30;2.17;;;;;;;;;;5034307;28;20025;-78
2023/06/28 04:43:26;;;;;;;8.95;1.90;;;;;;;;;;5037307;28;20029;-78
2023/06/28 04:45:55;;;;;;;9.45;2.63;;;;;;;;;;5037723;28;20035;-78
2023/06/28 04:48:21;;;;;;;5.97;2.22;;;;;;;;;;5036454;28;20152;-77
2023/06/28 04:50:47;;;;;;;6.35;2.47;;;;;;;;;;5019308;28;20040;-77
2023/06/28 04:53:14;;;;;;;6.57;1.90;;;;;;;;;;5037363;28;20029;-77
2023/06/28 04:55:43;;;;;;;7.88;2.90;;;;;;;;;;5036701;28;20025;-77
2023/06/28 04:58:09;;;;;;;6.85;2.20;;;;;;;;;;5038678;28;20029;-77
2023/06/28 05:00:35;;;;;;;11.75;2.40;;;;;;;;;;5042029;28;20041;-78
2023/06/28 05:03:01;;;;;;;5.57;2.22;;;;;;;;;;5024754;28;20021;-77
2023/06/28 05:05:28;;;;;;;7.38;2.00;;;;;;;;;;5038813;28;20095;-77
2023/06/28 05:07:54;;;;;;;8.10;2.25;;;;;;;;;;5025565;28;20060;-78
2023/06/28 05:10:21;;;;;;;10.15;2.40;;;;;;;;;;5048554;28;20100;-78
2023/06/28 05:12:50;;;;;;;7.63;2.65;;;;;;;;;;5049871;28;20033;-78
2023/06/28 05:15:16;;;;;;;11.98;2.15;;;;;;;;;;5047574;28;20084;-78
2023/06/28 05:17:42;;;;;;;13.10;2.42;;;;;;;;;;5033923;28;20046;-78
2023/06/28 05:20:08;;;;;;;7.57;1.88;;;;;;;;;;5027578;28;20037;-78
2023/06/28 05:22:34;;;;;;;9.10;2.03;;;;;;;;;;5026112;28;20037;-78
2023/06/28 05:25:00;;;;;;;7.00;2.40;;;;;;;;;;5017955;28;20025;-78
2023/06/28 05:27:27;;;;;;;5.50;2.40;;;;;;;;;;5019174;28;20507;-77
2023/06/28 05:29:53;;;;;;;6.57;2.28;;;;;;;;;;5003286;28;20033;-78
2023/06/28 05:32:19;;;;;;;8.75;2.42;;;;;;;;;;5024141;28;20022;-79
2023/06/28 05:34:47;;;;;;;7.47;1.90;;;;;;;;;;5025375;28;20483;-78
2023/06/28 05:37:13;;;;;;;9.23;2.72;;;;;;;;;;5022136;28;20033;-79
2023/06/28 05:39:39;;;;;;;6.18;1.90;;;;;;;;;;5021556;28;20021;-79
2023/06/28 05:42:05;;;;;;;6.30;1.58;;;;;;;;;;5021824;28;20014;-78
2023/06/28 05:44:31;;;;;;;12.40;3.05;;;;;;;;;;5024107;28;20025;-79
2023/06/28 05:46:57;;;;;;;7.80;2.25;;;;;;;;;;5031523;28;20037;-78
2023/06/28 05:49:23;;;;;;;9.82;1.98;;;;;;;;;;5044103;28;20033;-78
2023/06/28 05:51:49;;;;;;;6.07;2.25;;;;;;;;;;5038295;28;20432;-77
2023/06/28 05:54:15;;;;;;;8.75;2.53;;;;;;;;;;5025798;28;20076;-75
2023/06/28 05:56:41;;;;;;;7.57;2.38;;;;;;;;;;5029359;28;20049;-75
2023/06/28 05:59:07;;;;;;;6.40;2.20;;;;;;;;;;5030157;28;20052;-76
2023/06/28 06:01:33;;;;;;;6.30;2.65;;;;;;;;;;5030340;28;20075;-76
2023/06/28 06:03:59;;;;;;;8.15;2.50;;;;;;;;;;5031522;28;20332;-76
2023/06/28 06:06:25;;;;;;;9.73;2.53;;;;;;;;;;5030211;28;20060;-75
2023/06/28 06:08:51;;;;;;;10.68;2.88;;;;;;;;;;5031603;28;20112;-76
2023/06/28 06:11:17;;;;;;;13.82;2.60;;;;;;;;;;5031564;28;20060;-75
2023/06/28 06:13:43;;;;;;;7.22;2.00;;;;;;;;;;5029979;28;20033;-76
2023/06/28 06:16:09;;;;;;;9.77;2.35;;;;;;;;;;5031519;28;20029;-75
2023/06/28 06:18:39;;;;;;;5.97;2.70;;;;;;;;;;5031200;28;20025;-75
2023/06/28 06:21:06;;;;;;;11.23;2.45;;;;;;;;;;5031388;28;20022;-75
2023/06/28 06:23:32;;;;;;;8.18;2.45;;;;;;;;;;5030661;28;20109;-75
2023/06/28 06:25:58;;;;;;;7.50;1.75;;;;;;;;;;5031594;28;20236;-75
2023/06/28 06:28:24;;;;;;;9.40;2.35;;;;;;;;;;5031125;28;20022;-77
2023/06/28 06:30:50;;;;;;;7.53;2.75;;;;;;;;;;5031051;28;20040;-75
2023/06/28 06:33:16;;;;;;;7.07;1.85;;;;;;;;;;5031331;28;20029;-74
2023/06/28 06:35:42;;;;;;;9.27;2.08;;;;;;;;;;5031220;28;20424;-76
2023/06/28 06:38:08;;;;;;;9.18;2.42;;;;;;;;;;5030813;28;20036;-74
2023/06/28 06:40:34;;;;;;;9.80;1.83;;;;;;;;;;5031194;28;20026;-76
2023/06/28 06:43:00;;;;;;;9.13;2.35;;;;;;;;;;5030058;28;20110;-75
2023/06/28 06:45:26;;;;;;;5.88;2.10;;;;;;;;;;5031518;28;20041;-77
2023/06/28 06:47:52;;;;;;;5.60;1.80;;;;;;;;;;5031135;28;20421;-75
2023/06/28 06:50:18;;;;;;;7.53;1.80;;;;;;;;;;5031455;28;20025;-76
2023/06/28 06:52:44;;;;;;;9.38;1.67;;;;;;;;;;5031133;28;20105;-76
2023/06/28 06:55:10;;;;;;;7.78;2.20;;;;;;;;;;5031286;28;20029;-76
2023/06/28 06:57:36;;;;;;;7.30;2.17;;;;;;;;;;5031145;28;20030;-75
2023/06/28 07:00:04;;;;;;;8.57;2.33;;;;;;;;;;5030727;28;20464;-76
2023/06/28 07:02:30;;;;;;;6.40;2.08;;;;;;;;;;5030638;28;20022;-75
2023/06/28 07:04:56;;;;;;;4.28;1.92;;;;;;;;;;5030232;28;20373;-75
2023/06/28 07:07:22;;;;;;;6.85;1.50;;;;;;;;;;5029239;28;20040;-74
2023/06/28 07:09:48;;;;;;;7.18;2.03;;;;;;;;;;5030744;28;20056;-74
2023/06/28 07:12:14;;;;;;;7.50;1.65;;;;;;;;;;5030587;28;20380;-75
2023/06/28 07:14:40;;;;;;;9.38;2.17;;;;;;;;;;5030091;28;20048;-75
2023/06/28 07:17:06;;;;;;;7.20;2.00;;;;;;;;;;5028455;28;20512;-75
2023/06/28 07:19:32;;;;;;;7.88;2.40;;;;;;;;;;5010674;28;20537;-75
2023/06/28 07:21:58;;;;;;;6.97;1.85;;;;;;;;;;5029181;28;20029;-74
2023/06/28 07:24:24;;;;;;;7.25;2.20;;;;;;;;;;5028710;28;20403;-74
2023/06/28 07:26:50;;;;;;;6.93;2.03;;;;;;;;;;5028949;28;20032;-76
2023/06/28 07:29:16;;;;;;;6.28;1.77;;;;;;;;;;5029237;28;20021;-75
2023/06/28 07:31:42;;;;;;;5.65;1.70;;;;;;;;;;5012586;28;20411;-75
2023/06/28 07:34:09;;;;;;;7.68;1.75;;;;;;;;;;5030259;28;20041;-74
2023/06/28 07:36:35;;;;;;;7.38;2.30;;;;;;;;;;5034598;28;20502;-76
2023/06/28 07:39:01;;;;;;;7.72;1.80;;;;;;;;;;5034089;28;20057;-76
2023/06/28 07:41:27;;;;;;;5.38;1.60;;;;;;;;;;5034278;28;20024;-76
2023/06/28 07:43:53;;;;;;;9.95;2.10;;;;;;;;;;5034308;28;20108;-75
2023/06/28 07:46:19;;;;;;;7.00;2.08;;;;;;;;;;5034472;28;20025;-75
2023/06/28 07:48:49;;;;;;;6.15;1.67;;;;;;;;;;5033811;28;20032;-76
2023/06/28 07:51:15;;;;;;;11.33;2.23;;;;;;;;;;5034174;28;20030;-76
2023/06/28 07:53:42;;;;;;;5.05;1.55;;;;;;;;;;5034113;28;20025;-76
2023/06/28 07:56:08;;;;;;;8.25;1.45;;;;;;;;;;5034132;28;20032;-75
2023/06/28 07:58:37;;;;;;;4.93;1.42;;;;;;;;;;5033883;28;20108;-75
2023/06/28 08:01:03;;;;;;;2.67;1.30;;;;;;;;;;5033669;28;20026;-75
2023/06/28 08:03:29;;;;;;;3.38;1.48;;;;;;;;;;5033941;28;20025;-75
2023/06/28 08:05:55;;;;;;;5.55;1.45;;;;;;;;;;5033990;28;20029;-77
2023/06/28 08:08:21;;;;;;;5.97;1.60;;;;;;;;;;5016196;28;20498;-77
2023/06/28 08:10:47;;;;;;;4.25;1.30;;;;;;;;;;5033704;28;20025;-77
2023/06/28 08:13:13;;;;;;;3.72;1.35;;;;;;;;;;5035365;28;20033;-76
2023/06/28 08:15:39;;;;;;;8.85;1.80;;;;;;;;;;5032335;28;20033;-75
2023/06/28 08:18:08;;;;;;;3.88;1.25;;;;;;;;;;5032267;28;20542;-76
2023/06/28 08:20:34;;;;;;;6.35;1.70;;;;;;;;;;5034606;28;20443;-76
2023/06/28 08:23:00;;;;;;;4.72;1.40;;;;;;;;;;5036516;28;20021;-75
2023/06/28 08:25:26;;;;;;;5.72;1.70;;;;;;;;;;5039040;28;20024;-76
2023/06/28 08:27:52;;;;;;;6.90;1.77;;;;;;;;;;5031801;28;20044;-77
2023/06/28 08:30:18;;;;;;;6.90;1.45;;;;;;;;;;5033017;28;20535;-76
2023/06/28 08:32:44;;;;;;;6.10;1.85;;;;;;;;;;5036339;28;20032;-77
2023/06/28 08:35:10;;;;;;;7.65;1.70;;;;;;;;;;5034599;28;20026;-76
2023/06/28 08:37:37;;;;;;;5.93;1.95;;;;;;;;;;5034533;28;20029;-76
2023/06/28 08:40:05;;;;;;;5.80;1.88;;;;;;;;;;5021160;28;20033;-76
2023/06/28 08:42:32;;;;;;;4.68;1.70;;;;;;;;;;5037175;28;20033;-76
2023/06/28 08:45:00;;;;;;;3.83;1.50;;;;;;;;;;5033432;28;20040;-77
2023/06/28 08:47:32;;;;;;;4.63;1.38;;;;;;;;;;5032598;28;20025;-76
2023/06/28 08:49:58;;;;;;;11.73;1.83;;;;;;;;;;5033161;28;20077;-77
2023/06/28 08:52:26;;;;;;;3.95;1.35;;;;;;;;;;5033722;28;20475;-77
2023/06/28 08:54:52;;;;;;;5.68;1.73;;;;;;;;;;5015448;28;20116;-76
2023/06/28 08:57:18;;;;;;;4.65;1.52;;;;;;;;;;5032376;28;20025;-76
2023/06/28 08:59:45;;;;;;;6.70;3.67;;;;;;;;;;5032873;28;20124;-76
2023/06/28 09:02:15;;;;;;;5.93;1.83;;;;;;;;;;5032927;28;20411;-76
2023/06/28 09:04:41;;;;;;;6.18;2.03;;;;;;;;;;5032745;28;20025;-76
2023/06/28 09:07:08;;;;;;;5.28;1.77;;;;;;;;;;5032395;28;20022;-76
2023/06/28 09:09:35;;;;;;;6.78;1.33;;;;;;;;;;5033164;28;20037;-76
2023/06/28 09:12:02;;;;;;;8.88;2.20;;;;;;;;;;5033305;28;20064;-76
2023/06/28 09:14:29;;;;;;;6.85;1.92;;;;;;;;;;5015176;28;20045;-76
2023/06/28 09:16:55;;;;;;;5.25;1.95;;;;;;;;;;5033081;28;20430;-76
2023/06/28 09:19:21;;;;;;;9.80;1.90;;;;;;;;;;5033242;28;20061;-76
2023/06/28 09:21:47;;;;;;;7.78;2.10;;;;;;;;;;5032821;28;20088;-77
2023/06/28 09:24:13;;;;;;;6.25;1.63;;;;;;;;;;5015597;28;20021;-76
2023/06/28 09:26:42;;;;;;;4.15;1.45;;;;;;;;;;5032883;28;20166;-76
2023/06/28 09:29:10;;;;;;;5.43;1.73;;;;;;;;;;5015089;28;20080;-76
2023/06/28 09:31:39;;;;;;;3.95;1.65;;;;;;;;;;5033070;28;20437;-76
2023/06/28 09:34:05;;;;;;;5.88;1.52;;;;;;;;;;5033501;28;20025;-76
2023/06/28 09:36:33;;;;;;;4.22;1.45;;;;;;;;;;5032694;28;20036;-77
2023/06/28 09:38:59;;;;;;;7.28;1.75;;;;;;;;;;5032794;28;20091;-76
2023/06/28 09:41:26;;;;;;;7.22;1.48;;;;;;;;;;5032000;28;20022;-76
2023/06/28 09:43:52;;;;;;;4.45;1.52;;;;;;;;;;5032041;28;20087;-78
2023/06/28 09:46:18;;;;;;;5.57;1.88;;;;;;;;;;5016069;28;20555;-78
2023/06/28 09:48:53;;;;;;;3.30;1.63;;;;;;;;;;5033913;28;20391;-76
2023/06/28 09:51:19;;;;;;;9.07;2.10;;;;;;;;;;5031031;28;20480;-76
2023/06/28 09:53:49;;;;;;;4.47;1.95;;;;;;;;;;5030730;28;20017;-76
2023/06/28 09:56:18;;;;;;;6.88;1.63;;;;;;;;;;5032249;28;20013;-77
2023/06/28 09:58:48;;;;;;;4.35;1.40;;;;;;;;;;5029993;28;20017;-76
2023/06/28 10:01:15;;;;;;;5.53;1.75;;;;;;;;;;5030494;28;20064;-77
2023/06/28 10:03:44;;;;;;;6.28;2.10;;;;;;;;;;5031511;28;20028;-77
2023/06/28 10:06:10;;;;;;;8.45;2.10;;;;;;;;;;5032308;28;20026;-76
2023/06/28 10:08:37;;;;;;;5.65;2.22;;;;;;;;;;5031586;28;20021;-75
2023/06/28 10:11:06;;;;;;;4.38;1.60;;;;;;;;;;5031561;28;20025;-75
2023/06/28 10:13:32;;;;;;;7.18;1.90;;;;;;;;;;5030852;28;20471;-76
2023/06/28 10:16:30;;;;;;;4.38;1.67;;;;;;;;;;5031208;28;20502;-76
2023/06/28 10:18:57;;;;;;;5.43;1.55;;;;;;;;;;4970506;28;20411;-76
2023/06/28 10:21:23;;;;;;;6.72;1.70;;;;;;;;;;5031370;28;20022;-76
2023/06/28 10:23:49;;;;;;;5.28;1.90;;;;;;;;;;5031311;28;20033;-75
2023/06/28 10:26:15;;;;;;;6.00;1.90;;;;;;;;;;5013672;28;20484;-75
2023/06/28 10:28:41;;;;;;;4.07;1.58;;;;;;;;;;5030855;28;20091;-76
2023/06/28 10:31:10;;;;;;;2.15;1.20;;;;;;;;;;5013535;28;20022;-76
2023/06/28 10:33:37;;;;;;;6.18;1.30;;;;;;;;;;5013215;28;20048;-75
2023/06/28 10:36:04;;;;;;;3.30;1.20;;;;;;;;;;5031066;28;20109;-75
2023/06/28 10:38:33;;;;;;;4.95;1.73;;;;;;;;;;5013050;28;20025;-75
2023/06/28 10:41:01;;;;;;;5.55;1.60;;;;;;;;;;5029514;28;20025;-76
2023/06/28 10:43:27;;;;;;;8.50;1.70;;;;;;;;;;5030032;28;20484;-76
2023/06/28 10:45:53;;;;;;;7.30;1.98;;;;;;;;;;5030732;28;20116;-75
2023/06/28 10:48:23;;;;;;;5.78;1.75;;;;;;;;;;5012139;28;20025;-75
2023/06/28 10:50:50;;;;;;;4.47;1.60;;;;;;;;;;5012737;28;20068;-75
2023/06/28 10:53:23;;;;;;;3.83;1.33;;;;;;;;;;5012456;28;20095;-76
2023/06/28 10:56:09;;;;;;;4.32;1.40;;;;;;;;;;5030496;28;20029;-76
2023/06/28 10:58:38;;;;;;;6.22;1.65;;;;;;;;;;5012825;28;20056;-77
2023/06/28 11:01:06;;;;;;;5.28;1.67;;;;;;;;;;5030540;28;20037;-74
2023/06/28 11:03:58;;;;;;;10.60;2.17;;;;;;;;;;5030780;28;20029;-75
2023/06/28 11:06:28;;;;;;;2.42;1.40;;;;;;;;;;5027765;28;20037;-75
2023/06/28 11:08:54;;;;;;;1.60;1.00;;;;;;;;;;5030586;28;20025;-75
2023/06/28 11:11:34;;;;;;;6.32;1.60;;;;;;;;;;5034719;28;20387;-76
2023/06/28 11:14:16;;;;;;;7.15;1.70;;;;;;;;;;5016795;28;20124;-75
2023/06/28 11:16:42;;;;;;;3.78;1.45;;;;;;;;;;5034712;28;20018;-75
2023/06/28 11:19:13;;;;;;;5.88;1.88;;;;;;;;;;5031879;28;20083;-75
2023/06/28 11:21:40;;;;;;;8.05;2.17;;;;;;;;;;5032835;28;20021;-75
2023/06/28 11:24:06;;;;;;;5.30;1.88;;;;;;;;;;5034323;28;20037;-75
2023/06/28 11:26:42;;;;;;;3.83;1.48;;;;;;;;;;5016302;28;20071;-75
2023/06/28 11:29:16;;;;;;;3.53;1.17;;;;;;;;;;5034171;28;20029;-75
2023/06/28 11:31:46;;;;;;;4.97;1.55;;;;;;;;;;5016272;28;20083;-76
2023/06/28 11:34:16;;;;;;;7.50;1.75;;;;;;;;;;5034489;28;20029;-76
2023/06/28 11:36:43;;;;;;;4.07;1.63;;;;;;;;;;5033995;28;20503;-76
2023/06/28 11:39:10;;;;;;;3.20;1.50;;;;;;;;;;5016472;28;20357;-76
2023/06/28 11:41:36;;;;;;;4.07;1.75;;;;;;;;;;5034263;28;20029;-76
2023/06/28 11:44:04;;;;;;;3.78;1.58;;;;;;;;;;5034165;28;20053;-76
2023/06/28 11:46:32;;;;;;;6.53;1.30;;;;;;;;;;5033109;28;20539;-76
2023/06/28 11:49:02;;;;;;;5.32;1.25;;;;;;;;;;5034115;28;20049;-76
2023/06/28 11:51:28;;;;;;;4.93;1.60;;;;;;;;;;5034457;28;20040;-75
2023/06/28 11:53:57;;;;;;;4.47;1.40;;;;;;;;;;5034120;28;20108;-76
2023/06/28 11:56:36;;;;;;;5.28;1.30;;;;;;;;;;5034674;28;20048;-75
2023/06/28 11:59:15;;;;;;;6.55;1.70;;;;;;;;;;5034481;28;20021;-76
2023/06/28 12:01:41;;;;;;;5.53;1.33;;;;;;;;;;5034135;28;20094;-75
2023/06/28 12:04:17;;;;;;;4.13;1.15;;;;;;;;;;5034603;28;20014;-75
2023/06/28 12:06:43;;;;;;;3.47;1.50;;;;;;;;;;5034370;28;20025;-76
2023/06/28 12:09:23;;;;;;;5.22;2.17;;;;;;;;;;5034030;28;20052;-75
2023/06/28 12:11:53;;;;;;;4.97;1.45;;;;;;;;;;5033944;28;20034;-76
2023/06/28 12:14:20;;;;;;;3.78;1.45;;;;;;;;;;5033687;28;20090;-75
2023/06/28 12:16:46;;;;;;;2.95;1.40;;;;;;;;;;5033465;28;20021;-75
2023/06/28 12:19:18;;;;;;;5.53;1.77;;;;;;;;;;5033372;28;20113;-75
2023/06/28 12:21:44;;;;;;;3.88;1.50;;;;;;;;;;5032462;28;20029;-75
2023/06/28 12:24:12;;;;;;;4.68;1.70;;;;;;;;;;5033522;28;20017;-75
2023/06/28 12:26:38;;;;;;;6.22;1.17;;;;;;;;;;5031954;28;20530;-76
2023/06/28 12:29:08;;;;;;;3.30;1.50;;;;;;;;;;5031751;28;20066;-75
2023/06/28 12:31:43;;;;;;;5.00;1.40;;;;;;;;;;5031906;28;20024;-75
2023/06/28 12:34:09;;;;;;;3.60;1.23;;;;;;;;;;5031236;28;20105;-76
2023/06/28 12:36:35;;;;;;;3.00;1.48;;;;;;;;;;5031873;28;20049;-76
2023/06/28 12:39:01;;;;;;;5.32;1.27;;;;;;;;;;5031227;28;20018;-75
2023/06/28 12:41:27;;;;;;;4.32;1.83;;;;;;;;;;5031531;28;20090;-76
2023/06/28 12:43:57;;;;;;;5.75;1.40;;;;;;;;;;5033193;28;20087;-76
2023/06/28 12:46:23;;;;;;;3.65;1.00;;;;;;;;;;5033020;28;20056;-76
2023/06/28 12:48:54;;;;;;;4.05;1.17;;;;;;;;;;5032903;28;20042;-76
2023/06/28 12:51:20;;;;;;;2.53;1.00;;;;;;;;;;5033131;28;20017;-75
2023/06/28 12:53:46;;;;;;;8.80;1.38;;;;;;;;;;5015237;28;20385;-76
2023/06/28 12:56:12;;;;;;;4.65;1.00;;;;;;;;;;5032741;28;20022;-75
2023/06/28 12:58:38;;;;;;;3.70;1.20;;;;;;;;;;5032547;28;20485;-75
2023/06/28 13:01:04;;;;;;;6.43;1.40;;;;;;;;;;5015023;28;20056;-75
2023/06/28 13:03:30;;;;;;;5.65;1.98;;;;;;;;;;5032531;28;20021;-76
2023/06/28 13:05:56;;;;;;;4.85;1.50;;;;;;;;;;5032949;28;20033;-75
2023/06/28 13:08:24;;;;;;;5.40;1.20;;;;;;;;;;5032578;28;20032;-75
2023/06/28 13:10:50;;;;;;;6.40;1.40;;;;;;;;;;5032570;28;20144;-75
2023/06/28 13:13:16;;;;;;;2.75;1.10;;;;;;;;;;5032473;28;20183;-75
2023/06/28 13:15:42;;;;;;;3.47;1.85;;;;;;;;;;5032624;28;20033;-75
2023/06/28 13:18:08;;;;;;;3.10;1.30;;;;;;;;;;5032237;28;20139;-77
2023/06/28 13:20:34;;;;;;;2.92;1.00;;;;;;;;;;5032659;28;20032;-76
2023/06/28 13:23:00;;;;;;;6.13;2.03;;;;;;;;;;5032165;28;20044;-74
2023/06/28 13:25:26;;;;;;;4.38;1.52;;;;;;;;;;5032627;28;20102;-77
2023/06/28 13:27:52;;;;;;;5.72;1.48;;;;;;;;;;5032058;28;20101;-76
2023/06/28 13:30:18;;;;;;;5.20;1.05;;;;;;;;;;5032258;28;20185;-76
2023/06/28 13:32:44;;;;;;;4.80;1.40;;;;;;;;;;5032097;28;20075;-76
2023/06/28 13:35:11;;;;;;;7.07;1.80;;;;;;;;;;5032576;28;20165;-76
2023/06/28 13:37:37;;;;;;;5.63;1.13;;;;;;;;;;5031769;28;20030;-76
2023/06/28 13:40:03;;;;;;;2.97;1.10;;;;;;;;;;5032061;28;20415;-76
2023/06/28 13:42:31;;;;;;;5.72;1.63;;;;;;;;;;5031949;28;20044;-76
2023/06/28 13:44:57;;;;;;;5.22;1.58;;;;;;;;;;5031926;28;20464;-76
2023/06/28 13:47:23;;;;;;;5.60;1.20;;;;;;;;;;5031637;28;20017;-76
2023/06/28 13:49:49;;;;;;;3.17;1.25;;;;;;;;;;5014091;28;20021;-76
2023/06/28 13:52:17;;;;;;;3.90;1.27;;;;;;;;;;5031381;28;20159;-75
2023/06/28 13:54:43;;;;;;;5.80;1.20;;;;;;;;;;5031682;28;20053;-75
2023/06/28 13:57:09;;;;;;;2.47;1.23;;;;;;;;;;5031261;28;20649;-75
2023/06/28 13:59:35;;;;;;;3.13;1.55;;;;;;;;;;5031115;28;20108;-76
2023/06/28 14:02:01;;;;;;;2.50;1.05;;;;;;;;;;5013680;28;20109;-76
2023/06/28 14:04:27;;;;;;;3.63;1.30;;;;;;;;;;5031775;28;20138;-75
2023/06/28 14:06:53;;;;;;;5.22;1.50;;;;;;;;;;5031512;28;20025;-75
2023/06/28 14:09:19;;;;;;;3.83;1.48;;;;;;;;;;5030980;28;20037;-75
2023/06/28 14:11:45;;;;;;;4.82;1.20;;;;;;;;;;5030731;28;20026;-75
2023/06/28 14:14:11;;;;;;;4.82;1.23;;;;;;;;;;5068583;22;20120;-75
2023/06/28 14:16:37;;;;;;;5.90;1.65;;;;;;;;;;5030726;28;20092;-74
2023/06/28 14:19:03;;;;;;;5.50;1.60;;;;;;;;;;5029759;28;20468;-75
2023/06/28 14:21:29;;;;;;;6.68;1.60;;;;;;;;;;5029813;28;20056;-75
2023/06/28 14:23:55;;;;;;;3.60;1.38;;;;;;;;;;5029494;28;20025;-74
2023/06/28 14:26:21;;;;;;;6.53;1.40;;;;;;;;;;5029535;28;20018;-76
2023/06/28 14:28:47;;;;;;;5.68;1.20;;;;;;;;;;5029888;28;20022;-72
2023/06/28 14:31:15;;;;;;;4.53;1.77;;;;;;;;;;5031252;28;20033;-75
2023/06/28 14:33:45;;;;;;;5.07;1.42;;;;;;;;;;5031208;28;20029;-76
2023/06/28 14:36:12;;;;;;;2.83;1.25;;;;;;;;;;5031545;28;20044;-76
2023/06/28 14:38:38;;;;;;;2.60;1.42;;;;;;;;;;5031439;28;20041;-76
2023/06/28 14:41:04;;;;;;;4.60;1.20;;;;;;;;;;5031650;28;20447;-76